Date,TemperatureHighF,TemperatureAvgF,TemperatureLowF,DewpointHighF,DewpointAvgF,DewpointLowF,HumidityHigh,HumidityAvg,HumidityLow,PressureMaxIn,PressureMinIn,WindSpeedMaxMPH,WindSpeedAvgMPH,GustSpeedMaxMPH,PrecipitationSumIn
2013-3-1,46.9,40.0,37.4,28.2,14.9,-5.3,60,39,12,29.68,29.50,24,9,27,0.04
2013-3-2,51.3,39.5,35.4,16.0,3.9,-11.7,39,25,8,29.68,29.62,17,7,17,0.00
2013-3-3,40.8,37.3,35.6,18.9,9.2,-1.1,45,31,18,29.65,29.56,16,7,16,0.00
2013-3-4,44.6,36.3,31.3,19.0,1.0,-13.2,51,26,9,29.70,29.56,26,10,28,0.00
2013-3-5,47.7,38.5,34.2,28.0,11.5,-2.7,51,33,20,30.06,29.70,25,10,25,0.00
2013-3-6,43.5,39.8,37.0,24.4,17.0,4.5,52,40,21,30.06,29.91,37,14,39,0.04
2013-3-7,41.0,39.9,38.5,32.2,28.5,18.1,73,64,42,29.91,29.82,40,22,42,1.08
2013-3-8,41.4,39.3,37.6,32.5,26.5,7.5,78,63,26,30.06,29.82,35,18,35,0.79
2013-3-9,41.4,37.6,34.9,17.8,13.7,9.7,47,37,29,30.32,30.03,32,13,32,0.00
2013-3-10,50.5,40.1,34.3,19.8,8.7,-9.2,50,30,9,30.41,30.32,13,7,16,0.00
2013-3-11,48.9,42.1,37.6,32.4,19.9,14.9,61,41,27,30.38,30.21,13,8,13,0.00
2013-3-12,52.7,48.6,45.0,46.8,36.6,31.3,80,63,51,30.24,29.79,21,13,22,0.25
2013-3-13,56.1,47.5,38.8,48.9,21.4,-13.2,81,44,7,29.79,29.70,28,8,28,0.58
2013-3-14,43.9,34.4,25.5,3.4,-11.8,-19.1,27,13,9,29.82,29.70,26,9,26,0.00
2013-3-15,41.0,31.2,22.6,-1.1,-14.3,-20.4,19,13,10,29.88,29.70,31,14,31,0.00
2013-3-16,43.0,35.9,31.5,1.0,-11.7,-15.0,22,12,9,29.88,29.70,20,7,21,0.00
2013-3-17,45.0,34.2,27.5,7.7,-7.3,-17.1,37,18,9,30.32,29.88,23,7,23,0.00
2013-3-18,37.6,30.7,23.7,5.2,-15.6,-20.0,31,12,10,30.47,30.27,19,8,20,0.00
2013-3-19,46.0,39.7,32.5,40.3,28.1,5.2,81,64,31,30.30,29.53,34,17,34,0.37
2013-3-20,43.0,34.9,28.6,19.8,-2.6,-14.3,51,23,9,29.88,29.68,32,15,33,0.00
2013-3-21,47.5,36.4,27.9,23.0,7.1,-12.6,60,33,8,29.88,29.59,21,8,21,0.00
2013-3-22,43.0,34.8,30.9,24.6,7.9,-12.8,66,37,11,29.79,29.59,20,4,20,0.41
2013-3-23,43.9,35.7,28.8,3.2,-9.6,-15.2,31,14,9,29.82,29.68,30,12,30,0.00
2013-3-24,52.9,38.5,31.3,-7.8,-12.1,-15.5,13,11,7,29.88,29.76,21,8,21,0.00
2013-3-25,48.7,38.0,30.7,19.2,-1.2,-13.5,45,21,8,29.79,29.47,30,10,30,0.00
2013-3-26,54.1,41.1,35.1,20.7,1.0,-12.3,50,22,7,29.82,29.47,27,11,27,0.00
2013-3-27,54.0,42.2,33.1,18.5,-6.1,-12.5,39,14,7,29.91,29.76,18,7,18,0.00
2013-3-28,52.3,43.4,40.1,32.0,9.1,-11.6,59,30,8,30.09,29.88,21,8,21,0.04
2013-3-29,60.6,45.5,37.9,14.4,-1.1,-10.8,30,16,6,30.09,30.03,18,7,18,0.00
2013-3-30,59.4,46.0,40.5,20.1,3.9,-10.8,40,21,6,30.18,30.06,15,7,15,0.00
2013-3-31,52.9,43.1,32.2,29.8,17.3,2.5,51,36,13,30.21,29.85,26,6,26,0.00